모두
Boggabri Airport YBOG 기상
There is no TAF data available at YBOG or any nearby airports.
There is no METAR data available at YBOG. Showing METAR data for YGDH (21 mi 동남).
최근 GUH METAR 이력(YBOG에 대한 데이터 없음)
| Date | Time (AEST) | Flight Rules | Wind Dir. | Speed | Type | Height AGL (ft) | Visibility | Temp (°C) | Temp (°F) | Dew Point (°C) | Dew Point (°F) | Rel. Humid. | Pressure | Density Altitude | Remarks |
|---|---|---|---|---|---|---|---|---|---|---|---|---|---|---|---|
| 08-5월 | 09:00 | n/a | 360° | 7 kt | Missing | 10° | 50° | 2° | 35° | 57% | 1024 mb | -56 ft | |||
| 08-5월 | 08:00 | n/a | 320° | 5 kt | Missing | 8° | 46° | 2° | 35° | 66% | 1024 mb | -296 ft | |||
| 08-5월 | 07:00 | n/a | 300° | 6 kt | Missing | 5° | 41° | 0° | 32° | 70% | 1023 mb | -626 ft | |||
| 08-5월 | 06:00 | n/a | 280° | 8 kt | Missing | 4° | 39° | 0° | 32° | 75% | 1023 mb | -746 ft | |||
| 08-5월 | 05:00 | n/a | 270° | 6 kt | Missing | 5° | 41° | 0° | 32° | 70% | 1023 mb | -626 ft | |||
| 08-5월 | 04:00 | n/a | 320° | 5 kt | Missing | 6° | 42° | 0° | 32° | 65% | 1023 mb | -506 ft | |||
| 08-5월 | 03:00 | n/a | 260° | 7 kt | Missing | 4° | 39° | -1° | 30° | 70% | 1023 mb | -746 ft | |||
| 08-5월 | 02:00 | n/a | 310° | 6 kt | Missing | 5° | 41° | -1° | 30° | 65% | 1023 mb | -626 ft | |||
| 08-5월 | 01:00 | n/a | 280° | 7 kt | Missing | 5° | 41° | -1° | 30° | 65% | 1023 mb | -626 ft | |||
| 08-5월 | 00:00 | n/a | 250° | 9 kt | Missing | 6° | 42° | -1° | 30° | 61% | 1023 mb | -506 ft | |||
| 07-5월 | 23:00 | n/a | 220° | 9 kt | Missing | 8° | 46° | -1° | 30° | 53% | 1023 mb | -266 ft | |||
| 07-5월 | 22:00 | n/a | 230° | 10 kt | Missing | 9° | 48° | -2° | 28° | 46% | 1023 mb | -146 ft | |||
| 07-5월 | 21:00 | n/a | 230° | 5 kt | Missing | 9° | 48° | -3° | 26° | 43% | 1023 mb | -146 ft | |||
| 07-5월 | 20:00 | n/a | 230° | 11 kt | Missing | 10° | 50° | -3° | 26° | 40% | 1022 mb | 3 ft | |||
| 07-5월 | 19:00 | n/a | 230° | 11 kt | Missing | 11° | 51° | -3° | 26° | 37% | 1022 mb | 123 ft | |||
| 07-5월 | 18:00 | n/a | 230° | 8 kt | Missing | 11° | 51° | -4° | 24° | 35% | 1021 mb | 153 ft | |||
| 07-5월 | 17:00 | n/a | 230° | 12 kt | Missing | 14° | 57° | -5° | 23° | 26% | 1020 mb | 542 ft | |||
| 07-5월 | 16:00 | n/a | 250° | 16 kt | Missing | 16° | 60° | -4° | 24° | 25% | 1019 mb | 812 ft | |||
| 07-5월 | 15:05 | n/a | 230° | 17 kt | Missing | 17° | 62° | -3° | 26° | 25% | 1019 mb | 932 ft | Wind gusting to 27 KT | ||
| 07-5월 | 14:00 | n/a | 240° | 17 kt | Missing | 17° | 62° | 5° | 41° | 45% | 1018 mb | 961 ft | |||
| 07-5월 | 13:00 | n/a | 240° | 14 kt | Missing | 18° | 64° | 6° | 42° | 45% | 1018 mb | 1,081 ft | |||
| 07-5월 | 12:00 | n/a | 250° | 13 kt | Missing | 18° | 64° | 6° | 42° | 45% | 1019 mb | 1,052 ft | |||
| 07-5월 | 11:00 | n/a | 260° | 9 kt | Missing | 17° | 62° | 6° | 42° | 48% | 1019 mb | 932 ft | |||
| 07-5월 | 10:00 | n/a | 300° | 7 kt | Missing | 15° | 59° | 9° | 48° | 67% | 1020 mb | 662 ft |
로그인
| 귀하의 브라우저는 지원되지 않습니다.. 브라우저를 업그레이드하세요 |
